sensor_id;sensor_type;location;lat;lon;timestamp;temperature;humidity
60473;DHT22;46318;52.716;6.444;2023-08-06T00:02:02;15.10;94.90
60473;DHT22;46318;52.716;6.444;2023-08-06T00:04:28;15.10;95.10
60473;DHT22;46318;52.716;6.444;2023-08-06T00:06:57;15.10;95.10
60473;DHT22;46318;52.716;6.444;2023-08-06T00:09:23;15.10;95.00
60473;DHT22;46318;52.716;6.444;2023-08-06T00:11:49;15.10;95.10
60473;DHT22;46318;52.716;6.444;2023-08-06T00:14:14;15.10;95.00
60473;DHT22;46318;52.716;6.444;2023-08-06T00:16:45;15.10;94.90
60473;DHT22;46318;52.716;6.444;2023-08-06T00:19:11;15.10;95.00
60473;DHT22;46318;52.716;6.444;2023-08-06T00:21:37;15.10;94.80
60473;DHT22;46318;52.716;6.444;2023-08-06T00:24:07;15.00;94.80
60473;DHT22;46318;52.716;6.444;2023-08-06T00:26:33;15.10;94.80
60473;DHT22;46318;52.716;6.444;2023-08-06T00:28:58;15.00;95.00
60473;DHT22;46318;52.716;6.444;2023-08-06T00:31:24;15.00;94.80
60473;DHT22;46318;52.716;6.444;2023-08-06T00:33:50;15.00;94.70
60473;DHT22;46318;52.716;6.444;2023-08-06T00:36:19;15.00;94.80
60473;DHT22;46318;52.716;6.444;2023-08-06T00:38:45;15.00;94.70
60473;DHT22;46318;52.716;6.444;2023-08-06T00:41:11;15.00;94.60
60473;DHT22;46318;52.716;6.444;2023-08-06T00:43:37;15.00;94.60
60473;DHT22;46318;52.716;6.444;2023-08-06T00:46:02;15.00;94.60
60473;DHT22;46318;52.716;6.444;2023-08-06T00:48:28;15.10;94.50
60473;DHT22;46318;52.716;6.444;2023-08-06T00:50:55;15.00;94.40
60473;DHT22;46318;52.716;6.444;2023-08-06T00:53:21;15.00;94.40
60473;DHT22;46318;52.716;6.444;2023-08-06T00:55:47;15.00;94.60
60473;DHT22;46318;52.716;6.444;2023-08-06T00:58:14;15.00;94.50
60473;DHT22;46318;52.716;6.444;2023-08-06T01:00:41;15.00;94.50
60473;DHT22;46318;52.716;6.444;2023-08-06T01:03:08;15.00;94.60
60473;DHT22;46318;52.716;6.444;2023-08-06T01:05:34;15.00;94.40
60473;DHT22;46318;52.716;6.444;2023-08-06T01:08:47;15.00;94.60
60473;DHT22;46318;52.716;6.444;2023-08-06T01:15:00;14.90;94.70
60473;DHT22;46318;52.716;6.444;2023-08-06T01:17:40;14.90;94.80
60473;DHT22;46318;52.716;6.444;2023-08-06T01:20:06;14.90;94.60
60473;DHT22;46318;52.716;6.444;2023-08-06T01:22:33;14.90;94.80
60473;DHT22;46318;52.716;6.444;2023-08-06T01:24:59;14.90;94.60
60473;DHT22;46318;52.716;6.444;2023-08-06T01:27:38;14.90;94.70
60473;DHT22;46318;52.716;6.444;2023-08-06T01:30:25;14.80;94.70
60473;DHT22;46318;52.716;6.444;2023-08-06T01:32:53;14.80;94.80
60473;DHT22;46318;52.716;6.444;2023-08-06T01:35:25;14.80;95.20
60473;DHT22;46318;52.716;6.444;2023-08-06T01:37:52;14.70;94.70
60473;DHT22;46318;52.716;6.444;2023-08-06T01:40:19;14.70;94.90
60473;DHT22;46318;52.716;6.444;2023-08-06T01:42:45;14.70;94.90
60473;DHT22;46318;52.716;6.444;2023-08-06T01:45:11;14.70;95.00
60473;DHT22;46318;52.716;6.444;2023-08-06T01:47:37;14.70;94.90
60473;DHT22;46318;52.716;6.444;2023-08-06T01:50:03;14.70;95.20
60473;DHT22;46318;52.716;6.444;2023-08-06T01:52:30;14.70;95.10
60473;DHT22;46318;52.716;6.444;2023-08-06T01:54:56;14.70;95.10
60473;DHT22;46318;52.716;6.444;2023-08-06T01:57:22;14.70;95.20
60473;DHT22;46318;52.716;6.444;2023-08-06T01:59:48;14.70;95.20
60473;DHT22;46318;52.716;6.444;2023-08-06T02:02:13;14.60;95.40
60473;DHT22;46318;52.716;6.444;2023-08-06T02:04:42;14.60;95.30
60473;DHT22;46318;52.716;6.444;2023-08-06T02:07:08;14.50;95.60
60473;DHT22;46318;52.716;6.444;2023-08-06T02:09:37;14.50;95.70
60473;DHT22;46318;52.716;6.444;2023-08-06T02:12:03;14.50;95.60
60473;DHT22;46318;52.716;6.444;2023-08-06T02:14:30;14.50;95.70
60473;DHT22;46318;52.716;6.444;2023-08-06T02:16:55;14.50;95.70
60473;DHT22;46318;52.716;6.444;2023-08-06T02:19:21;14.50;95.80
60473;DHT22;46318;52.716;6.444;2023-08-06T02:21:47;14.50;95.80
60473;DHT22;46318;52.716;6.444;2023-08-06T02:24:13;14.50;95.80
60473;DHT22;46318;52.716;6.444;2023-08-06T02:26:39;14.50;95.70
60473;DHT22;46318;52.716;6.444;2023-08-06T02:29:05;14.50;95.70
60473;DHT22;46318;52.716;6.444;2023-08-06T02:31:30;14.50;95.60
60473;DHT22;46318;52.716;6.444;2023-08-06T02:33:59;14.50;95.70
60473;DHT22;46318;52.716;6.444;2023-08-06T02:36:25;14.50;95.60
60473;DHT22;46318;52.716;6.444;2023-08-06T02:38:55;14.50;95.80
60473;DHT22;46318;52.716;6.444;2023-08-06T02:41:21;14.50;95.90
60473;DHT22;46318;52.716;6.444;2023-08-06T02:43:47;14.50;95.70
60473;DHT22;46318;52.716;6.444;2023-08-06T02:46:12;14.50;95.80
60473;DHT22;46318;52.716;6.444;2023-08-06T02:48:38;14.50;95.70
60473;DHT22;46318;52.716;6.444;2023-08-06T02:51:04;14.50;95.60
60473;DHT22;46318;52.716;6.444;2023-08-06T02:53:30;14.50;95.70
60473;DHT22;46318;52.716;6.444;2023-08-06T02:55:57;14.50;95.80
60473;DHT22;46318;52.716;6.444;2023-08-06T02:58:24;14.50;95.80
60473;DHT22;46318;52.716;6.444;2023-08-06T03:01:04;14.50;95.80
60473;DHT22;46318;52.716;6.444;2023-08-06T03:03:32;14.50;95.70
60473;DHT22;46318;52.716;6.444;2023-08-06T03:05:59;14.40;95.90
60473;DHT22;46318;52.716;6.444;2023-08-06T03:08:26;14.40;96.00
60473;DHT22;46318;52.716;6.444;2023-08-06T03:10:52;14.40;95.80
60473;DHT22;46318;52.716;6.444;2023-08-06T03:13:19;14.40;95.90
60473;DHT22;46318;52.716;6.444;2023-08-06T03:15:58;14.40;95.90
60473;DHT22;46318;52.716;6.444;2023-08-06T03:18:25;14.40;96.00
60473;DHT22;46318;52.716;6.444;2023-08-06T03:20:51;14.40;95.90
60473;DHT22;46318;52.716;6.444;2023-08-06T03:23:18;14.40;95.80
60473;DHT22;46318;52.716;6.444;2023-08-06T03:25:45;14.50;95.90
60473;DHT22;46318;52.716;6.444;2023-08-06T03:28:11;14.50;95.80
60473;DHT22;46318;52.716;6.444;2023-08-06T03:30:36;14.50;95.90
60473;DHT22;46318;52.716;6.444;2023-08-06T03:33:02;14.50;95.80
60473;DHT22;46318;52.716;6.444;2023-08-06T03:35:28;14.50;96.00
60473;DHT22;46318;52.716;6.444;2023-08-06T03:37:54;14.50;96.00
60473;DHT22;46318;52.716;6.444;2023-08-06T03:40:20;14.50;95.90
60473;DHT22;46318;52.716;6.444;2023-08-06T03:42:46;14.50;96.10
60473;DHT22;46318;52.716;6.444;2023-08-06T03:45:12;14.50;96.00
60473;DHT22;46318;52.716;6.444;2023-08-06T03:47:38;14.50;96.10
60473;DHT22;46318;52.716;6.444;2023-08-06T03:50:04;14.50;96.00
60473;DHT22;46318;52.716;6.444;2023-08-06T03:52:30;14.60;96.10
60473;DHT22;46318;52.716;6.444;2023-08-06T03:54:56;14.50;96.10
60473;DHT22;46318;52.716;6.444;2023-08-06T03:57:22;14.50;96.10
60473;DHT22;46318;52.716;6.444;2023-08-06T03:59:48;14.50;96.10
60473;DHT22;46318;52.716;6.444;2023-08-06T04:02:14;14.50;96.10
60473;DHT22;46318;52.716;6.444;2023-08-06T04:04:40;14.50;96.10
60473;DHT22;46318;52.716;6.444;2023-08-06T04:07:05;14.50;96.20
60473;DHT22;46318;52.716;6.444;2023-08-06T04:09:31;14.50;96.30
60473;DHT22;46318;52.716;6.444;2023-08-06T04:11:57;14.50;96.20
60473;DHT22;46318;52.716;6.444;2023-08-06T04:14:26;14.50;96.30
60473;DHT22;46318;52.716;6.444;2023-08-06T04:16:52;14.50;96.30
60473;DHT22;46318;52.716;6.444;2023-08-06T04:19:18;14.50;96.30
60473;DHT22;46318;52.716;6.444;2023-08-06T04:21:43;14.50;96.10
60473;DHT22;46318;52.716;6.444;2023-08-06T04:24:09;14.50;96.20
60473;DHT22;46318;52.716;6.444;2023-08-06T04:26:35;14.60;96.10
60473;DHT22;46318;52.716;6.444;2023-08-06T04:29:01;14.60;96.20
60473;DHT22;46318;52.716;6.444;2023-08-06T04:31:28;14.60;96.20
60473;DHT22;46318;52.716;6.444;2023-08-06T04:33:54;14.50;96.40
60473;DHT22;46318;52.716;6.444;2023-08-06T04:36:23;14.60;96.20
60473;DHT22;46318;52.716;6.444;2023-08-06T04:38:49;14.60;96.10
60473;DHT22;46318;52.716;6.444;2023-08-06T04:41:15;14.60;96.10
60473;DHT22;46318;52.716;6.444;2023-08-06T04:43:42;14.60;96.00
60473;DHT22;46318;52.716;6.444;2023-08-06T04:46:08;14.60;96.10
60473;DHT22;46318;52.716;6.444;2023-08-06T04:48:33;14.60;96.10
60473;DHT22;46318;52.716;6.444;2023-08-06T04:51:00;14.60;96.10
60473;DHT22;46318;52.716;6.444;2023-08-06T04:53:26;14.60;96.20
60473;DHT22;46318;52.716;6.444;2023-08-06T04:55:52;14.60;96.10
60473;DHT22;46318;52.716;6.444;2023-08-06T04:58:18;14.60;96.10
60473;DHT22;46318;52.716;6.444;2023-08-06T05:00:44;14.60;96.10
60473;DHT22;46318;52.716;6.444;2023-08-06T05:03:10;14.70;96.10
60473;DHT22;46318;52.716;6.444;2023-08-06T05:05:36;14.70;96.00
60473;DHT22;46318;52.716;6.444;2023-08-06T05:08:02;14.70;96.10
60473;DHT22;46318;52.716;6.444;2023-08-06T05:10:28;14.70;96.10
60473;DHT22;46318;52.716;6.444;2023-08-06T05:12:54;14.70;96.00
60473;DHT22;46318;52.716;6.444;2023-08-06T05:15:20;14.70;96.00
60473;DHT22;46318;52.716;6.444;2023-08-06T05:17:47;14.80;95.90
60473;DHT22;46318;52.716;6.444;2023-08-06T05:20:13;14.80;96.00
60473;DHT22;46318;52.716;6.444;2023-08-06T05:22:41;14.80;96.20
60473;DHT22;46318;52.716;6.444;2023-08-06T05:25:07;14.80;96.30
60473;DHT22;46318;52.716;6.444;2023-08-06T05:27:33;14.80;96.30
60473;DHT22;46318;52.716;6.444;2023-08-06T05:30:05;14.80;96.10
60473;DHT22;46318;52.716;6.444;2023-08-06T05:32:31;14.80;96.00
60473;DHT22;46318;52.716;6.444;2023-08-06T05:34:57;14.80;96.10
60473;DHT22;46318;52.716;6.444;2023-08-06T05:37:23;14.80;96.20
60473;DHT22;46318;52.716;6.444;2023-08-06T05:39:49;14.80;96.20
60473;DHT22;46318;52.716;6.444;2023-08-06T05:42:16;14.90;96.00
60473;DHT22;46318;52.716;6.444;2023-08-06T05:44:42;14.90;96.20
60473;DHT22;46318;52.716;6.444;2023-08-06T05:47:08;14.90;96.20
60473;DHT22;46318;52.716;6.444;2023-08-06T05:49:34;14.90;96.10
60473;DHT22;46318;52.716;6.444;2023-08-06T05:52:00;14.90;96.10
60473;DHT22;46318;52.716;6.444;2023-08-06T05:54:25;14.90;96.00
60473;DHT22;46318;52.716;6.444;2023-08-06T05:56:51;15.00;96.30
60473;DHT22;46318;52.716;6.444;2023-08-06T05:59:17;15.00;96.10
60473;DHT22;46318;52.716;6.444;2023-08-06T06:01:43;15.00;96.20
60473;DHT22;46318;52.716;6.444;2023-08-06T06:04:09;15.00;96.00
60473;DHT22;46318;52.716;6.444;2023-08-06T06:06:35;15.00;96.20
60473;DHT22;46318;52.716;6.444;2023-08-06T06:09:01;15.10;96.20
60473;DHT22;46318;52.716;6.444;2023-08-06T06:11:27;15.00;96.10
60473;DHT22;46318;52.716;6.444;2023-08-06T06:13:53;15.10;96.20
60473;DHT22;46318;52.716;6.444;2023-08-06T06:16:20;15.10;96.10
60473;DHT22;46318;52.716;6.444;2023-08-06T06:18:46;15.10;96.10
60473;DHT22;46318;52.716;6.444;2023-08-06T06:21:12;15.10;96.20
60473;DHT22;46318;52.716;6.444;2023-08-06T06:23:38;15.20;96.20
60473;DHT22;46318;52.716;6.444;2023-08-06T06:26:04;15.20;96.20
60473;DHT22;46318;52.716;6.444;2023-08-06T06:28:31;15.20;96.00
60473;DHT22;46318;52.716;6.444;2023-08-06T06:31:01;15.20;96.20
60473;DHT22;46318;52.716;6.444;2023-08-06T06:33:27;15.20;95.90
60473;DHT22;46318;52.716;6.444;2023-08-06T06:35:53;15.20;95.90
60473;DHT22;46318;52.716;6.444;2023-08-06T06:38:19;15.30;95.80
60473;DHT22;46318;52.716;6.444;2023-08-06T06:40:55;15.30;95.90
60473;DHT22;46318;52.716;6.444;2023-08-06T06:43:23;15.30;95.80
60473;DHT22;46318;52.716;6.444;2023-08-06T06:45:53;15.30;95.90
60473;DHT22;46318;52.716;6.444;2023-08-06T06:48:23;15.30;95.70
60473;DHT22;46318;52.716;6.444;2023-08-06T06:50:52;15.30;95.70
60473;DHT22;46318;52.716;6.444;2023-08-06T06:53:18;15.30;95.80
60473;DHT22;46318;52.716;6.444;2023-08-06T06:55:48;15.30;95.80
60473;DHT22;46318;52.716;6.444;2023-08-06T06:58:18;15.30;95.90
60473;DHT22;46318;52.716;6.444;2023-08-06T07:00:46;15.30;95.90
60473;DHT22;46318;52.716;6.444;2023-08-06T07:03:13;15.30;96.00
60473;DHT22;46318;52.716;6.444;2023-08-06T07:05:47;15.30;95.90
60473;DHT22;46318;52.716;6.444;2023-08-06T07:08:14;15.40;95.80
60473;DHT22;46318;52.716;6.444;2023-08-06T07:10:41;15.40;95.80
60473;DHT22;46318;52.716;6.444;2023-08-06T07:13:08;15.40;96.00
60473;DHT22;46318;52.716;6.444;2023-08-06T07:15:34;15.40;95.80
60473;DHT22;46318;52.716;6.444;2023-08-06T07:18:03;15.50;96.00
60473;DHT22;46318;52.716;6.444;2023-08-06T07:20:28;15.50;95.90
60473;DHT22;46318;52.716;6.444;2023-08-06T07:22:58;15.50;96.20
60473;DHT22;46318;52.716;6.444;2023-08-06T07:25:24;15.50;96.00
60473;DHT22;46318;52.716;6.444;2023-08-06T07:27:50;15.50;95.80
60473;DHT22;46318;52.716;6.444;2023-08-06T07:30:22;15.50;96.00
60473;DHT22;46318;52.716;6.444;2023-08-06T07:32:48;15.60;95.70
60473;DHT22;46318;52.716;6.444;2023-08-06T07:35:14;15.60;95.60
60473;DHT22;46318;52.716;6.444;2023-08-06T07:37:40;15.60;95.80
60473;DHT22;46318;52.716;6.444;2023-08-06T07:40:07;15.60;95.60
60473;DHT22;46318;52.716;6.444;2023-08-06T07:42:34;15.60;95.60
60473;DHT22;46318;52.716;6.444;2023-08-06T07:45:01;15.60;95.50
60473;DHT22;46318;52.716;6.444;2023-08-06T07:47:31;15.70;95.40
60473;DHT22;46318;52.716;6.444;2023-08-06T07:50:03;15.70;95.30
60473;DHT22;46318;52.716;6.444;2023-08-06T07:52:29;15.70;95.40
60473;DHT22;46318;52.716;6.444;2023-08-06T07:54:55;15.70;95.50
60473;DHT22;46318;52.716;6.444;2023-08-06T07:57:41;15.70;95.50
60473;DHT22;46318;52.716;6.444;2023-08-06T08:00:07;15.80;95.40
60473;DHT22;46318;52.716;6.444;2023-08-06T08:02:35;15.80;95.50
60473;DHT22;46318;52.716;6.444;2023-08-06T08:05:01;15.80;95.40
60473;DHT22;46318;52.716;6.444;2023-08-06T08:07:27;15.80;95.00
60473;DHT22;46318;52.716;6.444;2023-08-06T08:09:56;15.80;94.80
60473;DHT22;46318;52.716;6.444;2023-08-06T08:12:30;15.80;95.00
60473;DHT22;46318;52.716;6.444;2023-08-06T08:14:56;15.90;95.20
60473;DHT22;46318;52.716;6.444;2023-08-06T08:17:25;15.90;95.00
60473;DHT22;46318;52.716;6.444;2023-08-06T08:19:51;16.00;94.80
60473;DHT22;46318;52.716;6.444;2023-08-06T08:22:17;16.00;94.80
60473;DHT22;46318;52.716;6.444;2023-08-06T08:24:45;16.00;94.70
60473;DHT22;46318;52.716;6.444;2023-08-06T08:27:13;16.00;94.60
60473;DHT22;46318;52.716;6.444;2023-08-06T08:29:42;16.00;94.50
60473;DHT22;46318;52.716;6.444;2023-08-06T08:32:20;16.10;94.30
60473;DHT22;46318;52.716;6.444;2023-08-06T08:34:49;16.10;94.00
60473;DHT22;46318;52.716;6.444;2023-08-06T08:37:19;16.10;94.00
60473;DHT22;46318;52.716;6.444;2023-08-06T08:39:47;16.20;94.00
60473;DHT22;46318;52.716;6.444;2023-08-06T08:42:13;16.20;93.90
60473;DHT22;46318;52.716;6.444;2023-08-06T08:44:40;16.20;93.60
60473;DHT22;46318;52.716;6.444;2023-08-06T08:47:11;16.30;93.70
60473;DHT22;46318;52.716;6.444;2023-08-06T08:49:44;16.30;93.60
60473;DHT22;46318;52.716;6.444;2023-08-06T08:52:12;16.30;93.40
60473;DHT22;46318;52.716;6.444;2023-08-06T08:54:41;16.40;93.20
60473;DHT22;46318;52.716;6.444;2023-08-06T08:57:07;16.40;93.20
60473;DHT22;46318;52.716;6.444;2023-08-06T08:59:41;16.50;93.00
60473;DHT22;46318;52.716;6.444;2023-08-06T09:02:13;16.50;92.60
60473;DHT22;46318;52.716;6.444;2023-08-06T09:04:47;16.50;92.90
60473;DHT22;46318;52.716;6.444;2023-08-06T09:07:18;16.50;92.60
60473;DHT22;46318;52.716;6.444;2023-08-06T09:09:51;16.60;92.60
60473;DHT22;46318;52.716;6.444;2023-08-06T09:12:31;16.60;92.50
60473;DHT22;46318;52.716;6.444;2023-08-06T09:14:58;16.60;92.40
60473;DHT22;46318;52.716;6.444;2023-08-06T09:17:30;16.60;92.40
60473;DHT22;46318;52.716;6.444;2023-08-06T09:19:56;16.60;92.50
60473;DHT22;46318;52.716;6.444;2023-08-06T09:22:34;16.70;92.40
60473;DHT22;46318;52.716;6.444;2023-08-06T09:25:18;16.70;92.20
60473;DHT22;46318;52.716;6.444;2023-08-06T09:27:59;16.70;92.10
60473;DHT22;46318;52.716;6.444;2023-08-06T09:30:30;16.70;92.20
60473;DHT22;46318;52.716;6.444;2023-08-06T09:33:03;16.70;92.10
60473;DHT22;46318;52.716;6.444;2023-08-06T09:35:34;16.80;92.10
60473;DHT22;46318;52.716;6.444;2023-08-06T09:38:09;16.80;92.20
60473;DHT22;46318;52.716;6.444;2023-08-06T09:40:39;16.90;92.40
60473;DHT22;46318;52.716;6.444;2023-08-06T09:43:39;16.90;92.20
60473;DHT22;46318;52.716;6.444;2023-08-06T09:46:14;17.00;92.30
60473;DHT22;46318;52.716;6.444;2023-08-06T09:48:47;17.00;92.20
60473;DHT22;46318;52.716;6.444;2023-08-06T09:51:14;17.00;92.10
60473;DHT22;46318;52.716;6.444;2023-08-06T09:53:44;17.10;92.10
60473;DHT22;46318;52.716;6.444;2023-08-06T09:56:11;17.10;91.70
60473;DHT22;46318;52.716;6.444;2023-08-06T09:58:39;17.10;91.40
60473;DHT22;46318;52.716;6.444;2023-08-06T10:01:08;17.20;91.20
60473;DHT22;46318;52.716;6.444;2023-08-06T10:03:37;17.20;91.10
60473;DHT22;46318;52.716;6.444;2023-08-06T10:06:04;17.30;90.70
60473;DHT22;46318;52.716;6.444;2023-08-06T10:08:33;17.30;90.20
60473;DHT22;46318;52.716;6.444;2023-08-06T10:11:03;17.40;89.50
60473;DHT22;46318;52.716;6.444;2023-08-06T10:13:32;17.40;89.30
60473;DHT22;46318;52.716;6.444;2023-08-06T10:15:59;17.50;89.40
60473;DHT22;46318;52.716;6.444;2023-08-06T10:18:29;17.50;89.50
60473;DHT22;46318;52.716;6.444;2023-08-06T10:20:59;17.60;89.20
60473;DHT22;46318;52.716;6.444;2023-08-06T10:23:36;17.70;89.10
60473;DHT22;46318;52.716;6.444;2023-08-06T10:26:04;17.70;88.50
60473;DHT22;46318;52.716;6.444;2023-08-06T10:28:41;17.70;87.60
60473;DHT22;46318;52.716;6.444;2023-08-06T10:31:10;17.80;87.90
60473;DHT22;46318;52.716;6.444;2023-08-06T10:33:47;17.90;87.70
60473;DHT22;46318;52.716;6.444;2023-08-06T10:36:14;17.90;86.60
60473;DHT22;46318;52.716;6.444;2023-08-06T10:38:45;18.00;87.00
60473;DHT22;46318;52.716;6.444;2023-08-06T10:41:21;18.10;86.90
60473;DHT22;46318;52.716;6.444;2023-08-06T10:44:10;18.10;86.70
60473;DHT22;46318;52.716;6.444;2023-08-06T10:46:37;18.20;86.40
60473;DHT22;46318;52.716;6.444;2023-08-06T10:49:04;18.20;86.20
60473;DHT22;46318;52.716;6.444;2023-08-06T10:51:36;18.30;85.20
60473;DHT22;46318;52.716;6.444;2023-08-06T10:54:05;18.30;85.50
60473;DHT22;46318;52.716;6.444;2023-08-06T10:56:40;18.30;85.10
60473;DHT22;46318;52.716;6.444;2023-08-06T10:59:07;18.40;85.20
60473;DHT22;46318;52.716;6.444;2023-08-06T11:01:36;18.50;85.20
60473;DHT22;46318;52.716;6.444;2023-08-06T11:04:04;18.60;85.30
60473;DHT22;46318;52.716;6.444;2023-08-06T11:06:30;18.60;85.00
60473;DHT22;46318;52.716;6.444;2023-08-06T11:08:56;18.70;84.50
60473;DHT22;46318;52.716;6.444;2023-08-06T11:11:23;18.70;84.60
60473;DHT22;46318;52.716;6.444;2023-08-06T11:13:51;18.80;84.10
60473;DHT22;46318;52.716;6.444;2023-08-06T11:16:27;18.80;83.70
60473;DHT22;46318;52.716;6.444;2023-08-06T11:18:53;18.90;83.30
60473;DHT22;46318;52.716;6.444;2023-08-06T11:21:25;18.90;83.30
60473;DHT22;46318;52.716;6.444;2023-08-06T11:23:52;19.00;83.50
60473;DHT22;46318;52.716;6.444;2023-08-06T11:26:19;19.10;83.80
60473;DHT22;46318;52.716;6.444;2023-08-06T11:28:46;19.20;83.30
60473;DHT22;46318;52.716;6.444;2023-08-06T11:31:28;19.20;83.00
60473;DHT22;46318;52.716;6.444;2023-08-06T11:33:54;19.30;81.60
60473;DHT22;46318;52.716;6.444;2023-08-06T11:36:32;19.40;81.90
60473;DHT22;46318;52.716;6.444;2023-08-06T11:39:00;19.50;82.10
60473;DHT22;46318;52.716;6.444;2023-08-06T11:41:29;19.60;81.80
60473;DHT22;46318;52.716;6.444;2023-08-06T11:43:58;19.70;81.60
60473;DHT22;46318;52.716;6.444;2023-08-06T11:46:27;19.80;81.70
60473;DHT22;46318;52.716;6.444;2023-08-06T11:48:59;19.90;81.40
60473;DHT22;46318;52.716;6.444;2023-08-06T11:51:25;20.00;80.70
60473;DHT22;46318;52.716;6.444;2023-08-06T11:53:58;20.20;80.50
60473;DHT22;46318;52.716;6.444;2023-08-06T11:56:25;20.40;79.30
60473;DHT22;46318;52.716;6.444;2023-08-06T11:58:52;20.50;78.00
60473;DHT22;46318;52.716;6.444;2023-08-06T12:01:18;20.60;77.30
60473;DHT22;46318;52.716;6.444;2023-08-06T12:03:44;20.80;76.30
60473;DHT22;46318;52.716;6.444;2023-08-06T12:06:10;20.80;77.00
60473;DHT22;46318;52.716;6.444;2023-08-06T12:08:37;21.00;76.30
60473;DHT22;46318;52.716;6.444;2023-08-06T12:11:05;21.10;75.30
60473;DHT22;46318;52.716;6.444;2023-08-06T12:13:31;21.20;75.10
60473;DHT22;46318;52.716;6.444;2023-08-06T12:15:56;21.30;74.60
60473;DHT22;46318;52.716;6.444;2023-08-06T12:18:24;21.30;74.80
60473;DHT22;46318;52.716;6.444;2023-08-06T12:20:49;21.30;74.30
60473;DHT22;46318;52.716;6.444;2023-08-06T12:23:18;21.30;74.70
60473;DHT22;46318;52.716;6.444;2023-08-06T12:25:44;21.30;74.30
60473;DHT22;46318;52.716;6.444;2023-08-06T12:28:10;21.20;73.70
60473;DHT22;46318;52.716;6.444;2023-08-06T12:30:43;21.20;73.30
60473;DHT22;46318;52.716;6.444;2023-08-06T12:33:13;21.20;73.50
60473;DHT22;46318;52.716;6.444;2023-08-06T12:35:39;21.20;74.30
60473;DHT22;46318;52.716;6.444;2023-08-06T12:38:05;21.10;73.30
60473;DHT22;46318;52.716;6.444;2023-08-06T12:40:31;21.00;72.20
60473;DHT22;46318;52.716;6.444;2023-08-06T12:42:57;21.00;72.80
60473;DHT22;46318;52.716;6.444;2023-08-06T12:45:27;20.90;72.70
60473;DHT22;46318;52.716;6.444;2023-08-06T12:47:56;20.90;73.30
60473;DHT22;46318;52.716;6.444;2023-08-06T12:50:22;20.90;74.00
60473;DHT22;46318;52.716;6.444;2023-08-06T12:52:50;20.80;74.40
60473;DHT22;46318;52.716;6.444;2023-08-06T12:55:16;20.70;74.70
60473;DHT22;46318;52.716;6.444;2023-08-06T12:57:42;20.70;75.30
60473;DHT22;46318;52.716;6.444;2023-08-06T13:00:08;20.60;75.70
60473;DHT22;46318;52.716;6.444;2023-08-06T13:02:34;20.60;76.00
60473;DHT22;46318;52.716;6.444;2023-08-06T13:05:00;20.60;76.20
60473;DHT22;46318;52.716;6.444;2023-08-06T13:07:28;20.50;76.60
60473;DHT22;46318;52.716;6.444;2023-08-06T13:09:54;20.50;76.90
60473;DHT22;46318;52.716;6.444;2023-08-06T13:12:20;20.50;77.50
60473;DHT22;46318;52.716;6.444;2023-08-06T13:14:49;20.40;77.70
60473;DHT22;46318;52.716;6.444;2023-08-06T13:17:15;20.40;78.20
60473;DHT22;46318;52.716;6.444;2023-08-06T13:19:41;20.30;78.80
60473;DHT22;46318;52.716;6.444;2023-08-06T13:22:07;20.20;79.60
60473;DHT22;46318;52.716;6.444;2023-08-06T13:24:34;20.20;79.40
60473;DHT22;46318;52.716;6.444;2023-08-06T13:27:02;20.10;79.90
60473;DHT22;46318;52.716;6.444;2023-08-06T13:29:28;20.10;79.30
60473;DHT22;46318;52.716;6.444;2023-08-06T13:31:55;20.10;79.40
60473;DHT22;46318;52.716;6.444;2023-08-06T13:34:33;20.10;79.20
60473;DHT22;46318;52.716;6.444;2023-08-06T13:41:18;20.00;81.00
60473;DHT22;46318;52.716;6.444;2023-08-06T13:47:40;19.80;81.50
60473;DHT22;46318;52.716;6.444;2023-08-06T13:50:24;19.70;82.30
60473;DHT22;46318;52.716;6.444;2023-08-06T13:53:01;19.70;82.80
60473;DHT22;46318;52.716;6.444;2023-08-06T13:55:33;19.60;83.20
60473;DHT22;46318;52.716;6.444;2023-08-06T13:58:12;19.60;83.00
60473;DHT22;46318;52.716;6.444;2023-08-06T14:00:45;19.50;83.60
60473;DHT22;46318;52.716;6.444;2023-08-06T14:03:25;19.50;83.70
60473;DHT22;46318;52.716;6.444;2023-08-06T14:06:19;19.50;83.70
60473;DHT22;46318;52.716;6.444;2023-08-06T14:08:56;19.50;83.10
60473;DHT22;46318;52.716;6.444;2023-08-06T14:11:42;19.50;83.70
60473;DHT22;46318;52.716;6.444;2023-08-06T14:14:20;19.50;84.00
60473;DHT22;46318;52.716;6.444;2023-08-06T14:17:01;19.50;84.20
60473;DHT22;46318;52.716;6.444;2023-08-06T14:19:27;19.40;84.20
60473;DHT22;46318;52.716;6.444;2023-08-06T14:21:57;19.40;84.50
60473;DHT22;46318;52.716;6.444;2023-08-06T14:24:26;19.40;84.90
60473;DHT22;46318;52.716;6.444;2023-08-06T14:26:52;19.30;85.20
60473;DHT22;46318;52.716;6.444;2023-08-06T14:29:21;19.20;85.50
60473;DHT22;46318;52.716;6.444;2023-08-06T14:31:51;19.20;85.60
60473;DHT22;46318;52.716;6.444;2023-08-06T14:34:25;19.10;86.00
60473;DHT22;46318;52.716;6.444;2023-08-06T14:36:54;19.00;86.30
60473;DHT22;46318;52.716;6.444;2023-08-06T14:39:25;19.00;86.60
60473;DHT22;46318;52.716;6.444;2023-08-06T14:41:51;18.90;86.70
60473;DHT22;46318;52.716;6.444;2023-08-06T14:44:30;18.90;87.00
60473;DHT22;46318;52.716;6.444;2023-08-06T14:46:57;18.90;86.90
60473;DHT22;46318;52.716;6.444;2023-08-06T14:49:26;18.90;86.90
60473;DHT22;46318;52.716;6.444;2023-08-06T14:52:18;18.80;86.60
60473;DHT22;46318;52.716;6.444;2023-08-06T14:54:45;18.80;86.40
60473;DHT22;46318;52.716;6.444;2023-08-06T14:57:17;18.70;86.20
60473;DHT22;46318;52.716;6.444;2023-08-06T14:59:49;18.70;86.20
60473;DHT22;46318;52.716;6.444;2023-08-06T15:02:26;18.60;86.00
60473;DHT22;46318;52.716;6.444;2023-08-06T15:05:02;18.50;86.10
60473;DHT22;46318;52.716;6.444;2023-08-06T15:07:35;18.50;86.20
60473;DHT22;46318;52.716;6.444;2023-08-06T15:10:17;18.50;86.40
60473;DHT22;46318;52.716;6.444;2023-08-06T15:12:59;18.40;86.70
60473;DHT22;46318;52.716;6.444;2023-08-06T15:15:42;18.30;87.00
60473;DHT22;46318;52.716;6.444;2023-08-06T15:18:22;18.30;87.20
60473;DHT22;46318;52.716;6.444;2023-08-06T15:21:40;18.20;87.50
60473;DHT22;46318;52.716;6.444;2023-08-06T15:24:23;18.10;87.70
60473;DHT22;46318;52.716;6.444;2023-08-06T15:27:02;18.10;87.90
60473;DHT22;46318;52.716;6.444;2023-08-06T15:29:44;18.00;87.90
60473;DHT22;46318;52.716;6.444;2023-08-06T15:32:13;17.90;88.00
60473;DHT22;46318;52.716;6.444;2023-08-06T15:34:51;17.90;88.20
60473;DHT22;46318;52.716;6.444;2023-08-06T15:37:20;17.80;88.90
60473;DHT22;46318;52.716;6.444;2023-08-06T15:39:49;17.70;89.10
60473;DHT22;46318;52.716;6.444;2023-08-06T15:42:15;17.70;89.10
60473;DHT22;46318;52.716;6.444;2023-08-06T15:44:41;17.70;89.10
60473;DHT22;46318;52.716;6.444;2023-08-06T15:47:07;17.70;89.30
60473;DHT22;46318;52.716;6.444;2023-08-06T15:49:33;17.60;89.40
60473;DHT22;46318;52.716;6.444;2023-08-06T15:51:59;17.70;89.30
60473;DHT22;46318;52.716;6.444;2023-08-06T15:54:50;17.60;89.40